createdAt,value
2022-11-15T00:01:25.742Z,97634.41
2022-11-15T00:03:54.256Z,97625.78
2022-11-15T00:06:22.523Z,97622.44
2022-11-15T00:08:50.886Z,97613.97
2022-11-15T00:11:19.161Z,97622.00
2022-11-15T00:13:48.843Z,97617.81
2022-11-15T00:16:17.161Z,97625.00
2022-11-15T00:18:50.329Z,97616.50
2022-11-15T00:21:19.840Z,97617.34
2022-11-15T00:23:48.192Z,97622.88
2022-11-15T00:26:17.572Z,97608.03
2022-11-15T00:28:46.232Z,97612.56
2022-11-15T00:31:16.707Z,97619.75
2022-11-15T00:33:46.750Z,97610.31
2022-11-15T00:36:15.308Z,97614.84
2022-11-15T00:38:43.627Z,97597.50
2022-11-15T00:41:11.995Z,97610.81
2022-11-15T00:43:41.194Z,97602.19
2022-11-15T00:46:10.712Z,97607.44
2022-11-15T00:48:40.517Z,97603.16
2022-11-15T00:51:08.847Z,97592.88
2022-11-15T00:53:37.096Z,97599.09
2022-11-15T00:56:05.716Z,97594.78
2022-11-15T00:58:34.250Z,97594.78
2022-11-15T01:01:09.743Z,97594.09
2022-11-15T01:03:40.185Z,97588.94
2022-11-15T01:06:09.636Z,97585.84
2022-11-15T01:08:38.380Z,97583.19
2022-11-15T01:11:10.159Z,97584.16
2022-11-15T01:13:39.752Z,97577.22
2022-11-15T01:16:10.993Z,97572.09
2022-11-15T01:18:40.926Z,97568.75
2022-11-15T01:21:11.495Z,97567.19
2022-11-15T01:23:40.613Z,97567.19
2022-11-15T01:26:13.120Z,97562.31
2022-11-15T01:28:43.782Z,97564.94
2022-11-15T01:31:16.894Z,97561.56
2022-11-15T01:33:47.113Z,97558.22
2022-11-15T01:36:19.945Z,97554.91
2022-11-15T01:38:48.240Z,97557.66
2022-11-15T01:41:22.715Z,97549.03
2022-11-15T01:43:56.419Z,97544.00
2022-11-15T01:46:32.845Z,97553.69
2022-11-15T01:49:07.393Z,97537.22
2022-11-15T01:51:36.048Z,97538.16
2022-11-15T01:54:09.908Z,97529.56
2022-11-15T01:56:44.729Z,97537.56
2022-11-15T01:59:13.776Z,97542.00
2022-11-15T02:01:42.776Z,97546.53
2022-11-15T02:04:16.274Z,97543.22
2022-11-15T02:06:45.666Z,97539.72
2022-11-15T02:09:15.224Z,97539.72
2022-11-15T02:11:44.845Z,97539.72
2022-11-15T02:14:15.524Z,97536.25
2022-11-15T02:16:53.892Z,97532.94
2022-11-15T02:19:48.172Z,97534.72
2022-11-15T02:22:29.850Z,97533.16
2022-11-15T02:25:20.579Z,97528.16
2022-11-15T02:28:33.359Z,97524.66
2022-11-15T02:31:09.999Z,97514.28
2022-11-15T02:33:48.803Z,97508.56
2022-11-15T02:36:29.110Z,97506.75
2022-11-15T02:39:05.734Z,97509.50
2022-11-15T02:41:44.297Z,97496.47
2022-11-15T02:44:18.886Z,97494.81
2022-11-15T02:47:11.031Z,97498.28
2022-11-15T02:49:41.859Z,97495.78
2022-11-15T02:52:10.187Z,97494.06
2022-11-15T02:54:38.631Z,97488.94
2022-11-15T02:57:14.666Z,97484.66
2022-11-15T03:00:08.705Z,97488.50
2022-11-15T03:02:59.557Z,97488.59
2022-11-15T03:05:36.527Z,97488.84
2022-11-15T03:08:12.965Z,97488.13
2022-11-15T03:10:51.172Z,97487.28
2022-11-15T03:13:28.383Z,97482.13
2022-11-15T03:16:05.627Z,97486.59
2022-11-15T03:18:39.753Z,97479.63
2022-11-15T03:21:11.148Z,97486.72
2022-11-15T03:23:41.239Z,97478.94
2022-11-15T03:26:14.704Z,97483.34
2022-11-15T03:28:50.962Z,97469.47
2022-11-15T03:31:38.988Z,97468.06
2022-11-15T03:34:13.555Z,97464.56
2022-11-15T03:36:42.060Z,97474.41
2022-11-15T03:39:13.221Z,97481.44
2022-11-15T03:41:51.848Z,97472.84
2022-11-15T03:44:36.432Z,97463.53
2022-11-15T03:47:15.561Z,97459.34
2022-11-15T03:49:49.084Z,97467.38
2022-11-15T03:52:20.717Z,97459.59
2022-11-15T03:54:55.929Z,97462.34
2022-11-15T03:57:24.628Z,97458.06
2022-11-15T03:59:52.941Z,97460.69
2022-11-15T04:02:21.320Z,97457.31
2022-11-15T04:04:50.899Z,97453.03
2022-11-15T04:07:19.271Z,97460.19
2022-11-15T04:10:06.523Z,97454.09
2022-11-15T04:12:37.567Z,97448.13
2022-11-15T04:15:09.035Z,97447.53
2022-11-15T04:17:40.516Z,97450.28
2022-11-15T04:20:31.499Z,97456.50
2022-11-15T04:23:19.365Z,97457.53
2022-11-15T04:25:49.742Z,97454.19
2022-11-15T04:28:18.045Z,97455.97
2022-11-15T04:30:46.325Z,97453.47
2022-11-15T04:33:14.736Z,97452.50
2022-11-15T04:36:05.066Z,97451.81
2022-11-15T04:38:32.447Z,97437.09
2022-11-15T04:41:00.731Z,97444.16
2022-11-15T04:43:29.673Z,97436.53
2022-11-15T04:45:58.259Z,97436.63
2022-11-15T04:48:26.488Z,97436.75
2022-11-15T04:50:56.110Z,97435.91
2022-11-15T04:53:24.426Z,97434.25
2022-11-15T04:55:52.611Z,97433.41
2022-11-15T04:58:20.859Z,97430.91
2022-11-15T05:00:49.165Z,97432.78
2022-11-15T05:03:35.381Z,97428.50
2022-11-15T05:06:05.427Z,97417.28
2022-11-15T05:08:33.754Z,97416.56
2022-11-15T05:11:01.990Z,97421.94
2022-11-15T05:13:30.541Z,97419.44
2022-11-15T05:15:59.096Z,97415.25
2022-11-15T05:18:27.363Z,97420.53
2022-11-15T05:20:55.580Z,97411.78
2022-11-15T05:23:25.238Z,97411.91
2022-11-15T05:25:53.458Z,97406.53
2022-11-15T05:28:21.719Z,97412.75
2022-11-15T05:30:49.940Z,97421.56
2022-11-15T05:33:18.255Z,97406.66
2022-11-15T05:35:53.269Z,97408.44
2022-11-15T05:38:21.672Z,97409.41
2022-11-15T05:40:51.409Z,97410.25
2022-11-15T05:43:19.854Z,97409.41
2022-11-15T05:45:48.241Z,97410.38
2022-11-15T05:48:17.085Z,97413.13
2022-11-15T05:50:48.578Z,97409.63
2022-11-15T05:53:21.897Z,97406.16
2022-11-15T05:55:51.597Z,97408.22
2022-11-15T05:58:20.575Z,97412.50
2022-11-15T06:00:49.041Z,97408.22
2022-11-15T06:03:17.277Z,97409.16
2022-11-15T06:05:45.547Z,97410.00
2022-11-15T06:08:13.894Z,97415.38
2022-11-15T06:10:42.097Z,97407.47
2022-11-15T06:13:11.889Z,97405.81
2022-11-15T06:15:40.185Z,97410.97
2022-11-15T06:18:08.433Z,97410.13
2022-11-15T06:20:36.645Z,97399.59
2022-11-15T06:23:06.949Z,97405.72
2022-11-15T06:25:35.227Z,97402.22
2022-11-15T06:28:03.530Z,97406.75
2022-11-15T06:30:33.138Z,97404.25
2022-11-15T06:33:03.443Z,97406.88
2022-11-15T06:35:32.125Z,97403.44
2022-11-15T06:38:06.336Z,97411.53
2022-11-15T06:40:37.144Z,97409.97
2022-11-15T06:43:06.692Z,97410.09
2022-11-15T06:45:36.373Z,97403.28
2022-11-15T06:48:04.886Z,97393.75
2022-11-15T06:50:33.146Z,97391.13
2022-11-15T06:53:04.931Z,97389.56
2022-11-15T06:55:33.247Z,97387.66
2022-11-15T06:58:01.788Z,97389.31
2022-11-15T07:00:30.150Z,97386.69
2022-11-15T07:03:02.322Z,97390.28
2022-11-15T07:05:31.322Z,97387.66
2022-11-15T07:08:00.727Z,97391.72
2022-11-15T07:10:29.750Z,97391.13
2022-11-15T07:12:58.971Z,97390.41
2022-11-15T07:15:28.265Z,97391.38
2022-11-15T07:17:56.551Z,97400.91
2022-11-15T07:20:26.155Z,97395.41
2022-11-15T07:23:02.958Z,97388.97
2022-11-15T07:25:31.252Z,97389.53
2022-11-15T07:28:00.800Z,97379.56
2022-11-15T07:30:30.085Z,97378.44
2022-11-15T07:32:59.360Z,97380.91
2022-11-15T07:35:31.024Z,97378.94
2022-11-15T07:38:01.315Z,97374.31
2022-11-15T07:40:33.664Z,97381.78
2022-11-15T07:43:03.384Z,97375.78
2022-11-15T07:45:32.268Z,97375.06
2022-11-15T07:48:00.540Z,97377.94
2022-11-15T07:50:30.906Z,97365.09
2022-11-15T07:53:01.377Z,97368.94
2022-11-15T07:55:30.784Z,97364.81
2022-11-15T07:58:04.490Z,97349.28
2022-11-15T08:00:33.061Z,97346.84
2022-11-15T08:03:06.124Z,97357.41
2022-11-15T08:05:36.548Z,97360.19
2022-11-15T08:08:05.386Z,97356.13
2022-11-15T08:10:40.263Z,97346.66
2022-11-15T08:13:12.510Z,97350.53
2022-11-15T08:15:41.102Z,97353.44
2022-11-15T08:18:13.720Z,97357.94
2022-11-15T08:20:44.241Z,97348.28
2022-11-15T08:23:14.343Z,97348.31
2022-11-15T08:25:42.849Z,97345.06
2022-11-15T08:28:12.947Z,97341.91
2022-11-15T08:30:43.839Z,97337.44
2022-11-15T08:33:15.045Z,97336.78
2022-11-15T08:35:45.723Z,97341.81
2022-11-15T08:38:14.033Z,97334.69
2022-11-15T08:40:42.479Z,97333.84
2022-11-15T08:43:10.791Z,97337.56
2022-11-15T08:45:39.024Z,97333.19
2022-11-15T08:48:07.669Z,97322.00
2022-11-15T08:50:35.940Z,97323.75
2022-11-15T08:53:09.454Z,97330.97
2022-11-15T08:55:39.837Z,97317.78
2022-11-15T08:58:08.446Z,97314.34
2022-11-15T09:00:36.772Z,97316.53
2022-11-15T09:03:06.780Z,97305.94
2022-11-15T09:05:38.144Z,97299.81
2022-11-15T09:08:25.683Z,97293.84
2022-11-15T09:10:56.253Z,97302.66
2022-11-15T09:13:24.981Z,97289.84
2022-11-15T09:15:53.213Z,97289.16
2022-11-15T09:18:23.360Z,97284.53
2022-11-15T09:20:51.748Z,97279.50
2022-11-15T09:23:21.496Z,97272.13
2022-11-15T09:25:49.813Z,97277.91
2022-11-15T09:28:18.134Z,97275.91
2022-11-15T09:30:46.728Z,97274.34
2022-11-15T09:33:15.384Z,97263.78
2022-11-15T09:35:43.651Z,97273.88
2022-11-15T09:38:12.063Z,97263.34
2022-11-15T09:40:41.749Z,97254.56
2022-11-15T09:43:34.996Z,97247.28
2022-11-15T09:46:18.149Z,97244.47
2022-11-15T09:48:55.431Z,97235.53
2022-11-15T09:51:31.604Z,97225.88
2022-11-15T09:57:18.042Z,97213.44
2022-11-15T10:00:30.899Z,97208.63
2022-11-15T10:03:09.733Z,97204.13
2022-11-15T10:05:43.437Z,97191.94
2022-11-15T10:08:46.085Z,97187.22
2022-11-15T10:11:37.803Z,97189.78
2022-11-15T10:14:16.252Z,97190.78
2022-11-15T10:17:26.612Z,97192.81
2022-11-15T10:20:12.582Z,97189.91
2022-11-15T10:22:43.572Z,97188.19
2022-11-15T10:25:22.056Z,97181.78
2022-11-15T10:27:59.170Z,97175.91
2022-11-15T10:30:37.188Z,97167.75
2022-11-15T10:33:26.124Z,97172.16
2022-11-15T10:36:23.861Z,97162.94
2022-11-15T10:38:58.736Z,97160.13
2022-11-15T10:41:38.602Z,97136.72
2022-11-15T10:44:27.473Z,97132.00
2022-11-15T10:47:30.842Z,97124.19
2022-11-15T10:50:06.739Z,97125.44
2022-11-15T10:52:38.215Z,97123.81
2022-11-15T10:55:25.164Z,97120.91
2022-11-15T10:57:56.382Z,97115.16
2022-11-15T11:00:35.570Z,97113.50
2022-11-15T11:03:09.221Z,97107.31
2022-11-15T11:05:42.100Z,97107.56
2022-11-15T11:08:25.674Z,97111.47
2022-11-15T11:11:02.823Z,97100.72
2022-11-15T11:13:34.145Z,97083.00
2022-11-15T11:16:39.287Z,97076.78
2022-11-15T11:19:36.756Z,97066.88
2022-11-15T11:22:18.525Z,97066.47
2022-11-15T11:24:58.600Z,97065.00
2022-11-15T11:27:45.589Z,97059.25
2022-11-15T11:30:20.807Z,97045.41
2022-11-15T11:33:12.437Z,97045.03
2022-11-15T11:35:53.936Z,97039.66
2022-11-15T11:38:41.806Z,97040.47
2022-11-15T11:41:22.544Z,97047.50
2022-11-15T11:44:07.232Z,97030.81
2022-11-15T11:46:54.619Z,97021.31
2022-11-15T11:49:30.739Z,97021.31
2022-11-15T11:52:07.148Z,97013.47
2022-11-15T11:54:50.398Z,97005.84
2022-11-15T11:57:34.567Z,97012.00
2022-11-15T12:00:12.379Z,97006.19
2022-11-15T12:02:44.656Z,97005.56
2022-11-15T12:05:19.813Z,96994.63
2022-11-15T12:07:51.903Z,96995.25
2022-11-15T12:10:26.297Z,96994.84
2022-11-15T12:13:04.299Z,96991.50
2022-11-15T12:15:44.027Z,96986.78
2022-11-15T12:18:17.706Z,96993.13
2022-11-15T12:20:56.735Z,96983.06
2022-11-15T12:23:30.803Z,96983.84
2022-11-15T12:26:06.842Z,96985.66
2022-11-15T12:28:53.159Z,96984.63
2022-11-15T12:31:39.469Z,96973.09
2022-11-15T12:34:32.459Z,96971.38
2022-11-15T12:37:00.734Z,96972.59
2022-11-15T12:40:20.582Z,96973.19
2022-11-15T12:43:17.051Z,96962.66
2022-11-15T12:45:47.124Z,96971.94
2022-11-15T12:49:01.764Z,96962.22
2022-11-15T12:52:07.991Z,96964.66
2022-11-15T12:55:34.960Z,96958.44
2022-11-15T12:58:30.531Z,96946.88
2022-11-15T13:00:59.222Z,96950.59
2022-11-15T13:03:30.398Z,96942.13
2022-11-15T13:06:09.640Z,96956.06
2022-11-15T13:08:48.253Z,96947.66
2022-11-15T13:11:53.366Z,96939.78
2022-11-15T13:14:51.941Z,96935.22
2022-11-15T13:17:35.554Z,96933.13
2022-11-15T13:20:24.818Z,96935.59
2022-11-15T13:23:00.252Z,96927.75
2022-11-15T13:25:59.820Z,96930.19
2022-11-15T13:28:39.318Z,96931.78
2022-11-15T13:31:28.245Z,96928.84
2022-11-15T13:34:00.493Z,96922.06
2022-11-15T13:36:34.008Z,96934.16
2022-11-15T13:39:05.740Z,96926.72
2022-11-15T13:41:36.013Z,96908.44
2022-11-15T13:44:21.820Z,96912.88
2022-11-15T13:46:50.092Z,96913.91
2022-11-15T13:49:18.597Z,96915.31
2022-11-15T13:51:50.287Z,96920.41
2022-11-15T13:54:23.375Z,96912.97
2022-11-15T13:56:56.858Z,96911.53
2022-11-15T13:59:30.084Z,96912.09
2022-11-15T14:02:03.994Z,96910.00
2022-11-15T14:04:35.368Z,96900.91
2022-11-15T14:07:04.929Z,96902.13
2022-11-15T14:09:38.101Z,96904.38
2022-11-15T14:12:33.764Z,96895.44
2022-11-15T14:15:21.842Z,96896.03
2022-11-15T14:17:50.600Z,96896.22
2022-11-15T14:20:29.449Z,96883.63
2022-11-15T14:22:59.725Z,96890.19
2022-11-15T14:25:29.731Z,96884.22
2022-11-15T14:28:31.763Z,96878.16
2022-11-15T14:31:02.568Z,96881.19
2022-11-15T14:33:33.346Z,96877.88
2022-11-15T14:36:07.440Z,96874.97
2022-11-15T14:38:36.550Z,96875.19
2022-11-15T14:41:05.026Z,96861.38
2022-11-15T14:43:33.447Z,96871.63
2022-11-15T14:46:03.088Z,96872.19
2022-11-15T14:48:31.924Z,96863.91
2022-11-15T14:51:00.768Z,96862.00
2022-11-15T14:53:29.147Z,96863.22
2022-11-15T14:55:57.463Z,96860.09
2022-11-15T14:58:25.706Z,96862.28
2022-11-15T15:00:54.024Z,96857.34
2022-11-15T15:03:23.713Z,96865.91
2022-11-15T15:05:51.945Z,96858.28
2022-11-15T15:08:20.348Z,96853.53
2022-11-15T15:10:49.000Z,96853.09
2022-11-15T15:13:22.477Z,96852.63
2022-11-15T15:15:51.753Z,96847.03
2022-11-15T15:18:20.941Z,96841.25
2022-11-15T15:21:00.982Z,96848.97
2022-11-15T15:23:31.792Z,96843.38
2022-11-15T15:26:00.301Z,96841.28
2022-11-15T15:28:34.039Z,96842.59
2022-11-15T15:31:03.141Z,96846.84
2022-11-15T15:33:31.493Z,96840.25
2022-11-15T15:36:01.339Z,96841.16
2022-11-15T15:38:30.170Z,96840.06
2022-11-15T15:41:00.609Z,96837.31
2022-11-15T15:43:28.921Z,96846.03
2022-11-15T15:45:57.270Z,96848.59
2022-11-15T15:48:25.643Z,96840.53
2022-11-15T15:50:54.046Z,96837.13
2022-11-15T15:53:23.981Z,96840.16
2022-11-15T15:55:52.398Z,96831.59
2022-11-15T15:58:20.879Z,96840.09
2022-11-15T16:00:49.343Z,96833.88
2022-11-15T16:03:17.801Z,96839.91
2022-11-15T16:05:46.406Z,96838.97
2022-11-15T16:08:20.812Z,96840.88
2022-11-15T16:10:51.109Z,96838.25
2022-11-15T16:13:19.586Z,96839.16
2022-11-15T16:15:52.897Z,96839.19
2022-11-15T16:18:21.595Z,96832.94
2022-11-15T16:20:53.138Z,96834.50
2022-11-15T16:23:24.605Z,96830.69
2022-11-15T16:25:57.068Z,96841.22
2022-11-15T16:28:27.606Z,96839.25
2022-11-15T16:31:04.047Z,96836.28
2022-11-15T16:33:33.701Z,96842.31
2022-11-15T16:36:03.071Z,96833.88
2022-11-15T16:38:32.385Z,96833.56
2022-11-15T16:41:02.463Z,96824.47
2022-11-15T16:43:30.842Z,96830.31
2022-11-15T16:45:59.309Z,96827.50
2022-11-15T16:48:29.853Z,96825.53
2022-11-15T16:50:59.793Z,96830.56
2022-11-15T16:53:29.163Z,96831.88
2022-11-15T16:55:58.369Z,96836.91
2022-11-15T16:58:28.216Z,96842.72
2022-11-15T17:00:58.471Z,96843.22
2022-11-15T17:03:27.178Z,96840.06
2022-11-15T17:06:00.719Z,96837.09
2022-11-15T17:08:29.202Z,96834.94
2022-11-15T17:10:57.661Z,96840.75
2022-11-15T17:13:27.516Z,96845.78
2022-11-15T17:16:09.980Z,96848.94
2022-11-15T17:18:39.434Z,96846.78
2022-11-15T17:21:09.954Z,96849.09
2022-11-15T17:23:38.375Z,96846.16
2022-11-15T17:26:28.181Z,96845.81
2022-11-15T17:28:59.278Z,96845.81
2022-11-15T17:31:27.864Z,96843.66
2022-11-15T17:33:56.313Z,96842.53
2022-11-15T17:36:24.817Z,96850.97
2022-11-15T17:38:57.954Z,96851.47
2022-11-15T17:41:27.957Z,96855.63
2022-11-15T17:44:00.589Z,96853.31
2022-11-15T17:46:30.154Z,96849.34
2022-11-15T17:48:59.331Z,96849.00
2022-11-15T17:51:27.862Z,96848.34
2022-11-15T17:53:57.540Z,96853.16
2022-11-15T17:56:28.186Z,96851.16
2022-11-15T17:58:59.900Z,96848.19
2022-11-15T18:01:30.467Z,96845.19
2022-11-15T18:04:02.011Z,96843.84
2022-11-15T18:06:34.255Z,96837.38
2022-11-15T18:09:03.457Z,96830.59
2022-11-15T18:11:34.423Z,96825.78
2022-11-15T18:14:07.399Z,96819.16
2022-11-15T18:16:38.615Z,96814.50
2022-11-15T18:19:11.413Z,96815.00
2022-11-15T18:21:56.299Z,96811.03
2022-11-15T18:24:25.344Z,96819.63
2022-11-15T18:26:53.924Z,96813.00
2022-11-15T18:29:24.555Z,96805.56
2022-11-15T18:31:56.080Z,96807.69
2022-11-15T18:34:25.836Z,96812.66
2022-11-15T18:36:54.520Z,96798.91
2022-11-15T18:39:22.960Z,96795.91
2022-11-15T18:41:52.179Z,96801.50
2022-11-15T18:44:20.459Z,96793.91
2022-11-15T18:46:50.985Z,96800.50
2022-11-15T18:49:20.253Z,96799.84
2022-11-15T18:51:49.306Z,96801.00
2022-11-15T18:54:18.792Z,96792.53
2022-11-15T18:56:47.562Z,96798.00
2022-11-15T18:59:16.831Z,96790.38
2022-11-15T19:01:48.612Z,96788.06
2022-11-15T19:04:20.624Z,96783.91
2022-11-15T19:06:50.837Z,96785.91
2022-11-15T19:09:20.567Z,96780.28
2022-11-15T19:11:51.519Z,96791.00
2022-11-15T19:14:24.072Z,96776.47
2022-11-15T19:16:53.208Z,96781.22
2022-11-15T19:19:25.411Z,96777.25
2022-11-15T19:21:54.214Z,96782.03
2022-11-15T19:24:22.915Z,96782.34
2022-11-15T19:26:51.230Z,96783.50
2022-11-15T19:29:19.611Z,96783.66
2022-11-15T19:31:48.842Z,96781.31
2022-11-15T19:34:17.942Z,96786.91
2022-11-15T19:36:47.623Z,96785.25
2022-11-15T19:39:18.503Z,96787.25
2022-11-15T19:41:47.731Z,96787.56
2022-11-15T19:44:16.454Z,96786.88
2022-11-15T19:46:45.329Z,96793.47
2022-11-15T19:49:13.947Z,96788.47
2022-11-15T19:51:45.056Z,96795.69
2022-11-15T19:54:16.954Z,96794.06
2022-11-15T19:56:46.679Z,96798.66
2022-11-15T19:59:15.278Z,96784.78
2022-11-15T20:01:43.625Z,96790.25
2022-11-15T20:04:11.914Z,96773.03
2022-11-15T20:06:42.352Z,96773.31
2022-11-15T20:09:16.594Z,96779.75
2022-11-15T20:11:45.358Z,96782.56
2022-11-15T20:14:13.980Z,96778.44
2022-11-15T20:16:42.881Z,96777.75
2022-11-15T20:19:12.503Z,96776.25
2022-11-15T20:21:41.182Z,96767.66
2022-11-15T20:24:10.332Z,96773.22
2022-11-15T20:26:40.125Z,96776.03
2022-11-15T20:29:09.936Z,96770.06
2022-11-15T20:31:38.414Z,96766.78
2022-11-15T20:34:07.013Z,96771.38
2022-11-15T20:36:35.317Z,96761.97
2022-11-15T20:39:03.719Z,96765.59
2022-11-15T20:41:32.018Z,96757.28
2022-11-15T20:44:03.096Z,96763.91
2022-11-15T20:46:31.483Z,96756.97
2022-11-15T20:48:59.938Z,96755.50
2022-11-15T20:51:29.373Z,96759.41
2022-11-15T20:53:57.714Z,96748.03
2022-11-15T20:56:26.074Z,96752.63
2022-11-15T20:58:54.860Z,96745.69
2022-11-15T21:01:25.509Z,96746.50
2022-11-15T21:03:54.745Z,96741.91
2022-11-15T21:06:24.178Z,96741.75
2022-11-15T21:09:11.656Z,96737.47
2022-11-15T21:11:57.765Z,96743.06
2022-11-15T21:14:26.165Z,96736.88
2022-11-15T21:16:55.829Z,96732.75
2022-11-15T21:19:28.982Z,96731.19
2022-11-15T21:22:02.968Z,96720.50
2022-11-15T21:24:31.421Z,96721.13
2022-11-15T21:26:59.769Z,96719.63
2022-11-15T21:29:28.659Z,96711.91
2022-11-15T21:32:00.677Z,96707.00
2022-11-15T21:34:31.106Z,96699.28
2022-11-15T21:36:59.820Z,96692.75
2022-11-15T21:39:28.188Z,96692.28
2022-11-15T21:41:56.773Z,96690.28
2022-11-15T21:44:25.023Z,96699.56
2022-11-15T21:46:53.288Z,96700.22
2022-11-15T21:49:23.421Z,96693.84
2022-11-15T21:51:51.728Z,96690.19
2022-11-15T21:54:19.976Z,96676.84
2022-11-15T21:56:48.264Z,96682.81
2022-11-15T21:59:16.474Z,96681.81
2022-11-15T22:02:01.536Z,96687.09
2022-11-15T22:04:31.202Z,96672.91
2022-11-15T22:06:59.472Z,96667.47
2022-11-15T22:09:27.763Z,96663.03
2022-11-15T22:11:56.027Z,96666.34
2022-11-15T22:14:24.264Z,96653.16
2022-11-15T22:16:52.480Z,96645.22
2022-11-15T22:19:20.909Z,96646.88
2022-11-15T22:21:50.755Z,96642.44
2022-11-15T22:24:19.166Z,96636.16
2022-11-15T22:26:47.601Z,96632.53
2022-11-15T22:29:16.021Z,96627.25
2022-11-15T22:31:44.442Z,96623.63
2022-11-15T22:34:12.888Z,96628.75
2022-11-15T22:37:13.220Z,96627.75
2022-11-15T22:39:35.097Z,96620.69
2022-11-15T22:42:03.567Z,96616.22
2022-11-15T22:44:32.052Z,96610.13
2022-11-15T22:47:00.452Z,96615.25
2022-11-15T22:49:28.969Z,96612.44
2022-11-15T22:51:57.415Z,96622.81
2022-11-15T22:54:25.828Z,96615.09
2022-11-15T22:56:56.925Z,96615.88
2022-11-15T22:59:26.174Z,96614.09
2022-11-15T23:01:54.598Z,96603.53
2022-11-15T23:04:23.416Z,96603.53
2022-11-15T23:06:51.929Z,96601.88
2022-11-15T23:09:20.381Z,96601.88
2022-11-15T23:12:05.957Z,96600.03
2022-11-15T23:14:35.764Z,96594.44
2022-11-15T23:17:04.248Z,96594.44
2022-11-15T23:19:32.713Z,96594.44
2022-11-15T23:22:18.626Z,96593.59
2022-11-15T23:24:47.073Z,96584.84
2022-11-15T23:27:20.011Z,96576.28
2022-11-15T23:30:07.136Z,96580.41
2022-11-15T23:32:52.316Z,96571.00
2022-11-15T23:35:21.184Z,96571.00
2022-11-15T23:37:49.690Z,96556.28
2022-11-15T23:40:18.856Z,96552.81
2022-11-15T23:42:47.427Z,96543.06
2022-11-15T23:45:18.340Z,96549.19
2022-11-15T23:47:46.946Z,96547.22
2022-11-15T23:50:15.541Z,96548.88
2022-11-15T23:52:44.025Z,96556.63
2022-11-15T23:55:12.408Z,96555.47
2022-11-15T23:57:40.838Z,96545.59
